sensor_id;sensor_type;location;lat;lon;timestamp;temperature;humidity
6841;DHT22;3458;53.678;14.080;2023-03-16T00:02:25;3.10;99.90
6841;DHT22;3458;53.678;14.080;2023-03-16T00:04:51;3.10;99.90
6841;DHT22;3458;53.678;14.080;2023-03-16T00:07:16;3.10;99.90
6841;DHT22;3458;53.678;14.080;2023-03-16T00:09:42;3.20;99.90
6841;DHT22;3458;53.678;14.080;2023-03-16T00:12:12;3.20;99.90
6841;DHT22;3458;53.678;14.080;2023-03-16T00:14:40;3.20;99.90
6841;DHT22;3458;53.678;14.080;2023-03-16T00:17:06;3.30;99.90
6841;DHT22;3458;53.678;14.080;2023-03-16T00:19:31;3.30;99.90
6841;DHT22;3458;53.678;14.080;2023-03-16T00:21:59;3.20;99.90
6841;DHT22;3458;53.678;14.080;2023-03-16T00:24:25;3.10;99.90
6841;DHT22;3458;53.678;14.080;2023-03-16T00:26:50;3.10;99.90
6841;DHT22;3458;53.678;14.080;2023-03-16T00:29:19;3.00;99.90
6841;DHT22;3458;53.678;14.080;2023-03-16T00:31:47;3.00;99.90
6841;DHT22;3458;53.678;14.080;2023-03-16T00:34:13;2.90;99.90
6841;DHT22;3458;53.678;14.080;2023-03-16T00:36:40;2.90;99.90
6841;DHT22;3458;53.678;14.080;2023-03-16T00:39:07;3.00;99.90
6841;DHT22;3458;53.678;14.080;2023-03-16T00:41:35;2.90;99.90
6841;DHT22;3458;53.678;14.080;2023-03-16T00:44:03;2.90;99.90
6841;DHT22;3458;53.678;14.080;2023-03-16T00:46:29;3.00;99.90
6841;DHT22;3458;53.678;14.080;2023-03-16T00:48:55;3.00;99.90
6841;DHT22;3458;53.678;14.080;2023-03-16T00:51:20;3.00;99.90
6841;DHT22;3458;53.678;14.080;2023-03-16T00:53:47;3.00;99.90
6841;DHT22;3458;53.678;14.080;2023-03-16T00:56:13;2.90;99.90
6841;DHT22;3458;53.678;14.080;2023-03-16T00:58:39;2.90;99.90
6841;DHT22;3458;53.678;14.080;2023-03-16T01:01:13;2.90;99.90
6841;DHT22;3458;53.678;14.080;2023-03-16T01:03:38;2.90;99.90
6841;DHT22;3458;53.678;14.080;2023-03-16T01:06:06;2.90;99.90
6841;DHT22;3458;53.678;14.080;2023-03-16T01:08:32;2.90;99.90
6841;DHT22;3458;53.678;14.080;2023-03-16T01:11:05;2.80;99.90
6841;DHT22;3458;53.678;14.080;2023-03-16T01:13:30;2.80;99.90
6841;DHT22;3458;53.678;14.080;2023-03-16T01:15:59;2.80;99.90
6841;DHT22;3458;53.678;14.080;2023-03-16T01:18:25;2.90;99.90
6841;DHT22;3458;53.678;14.080;2023-03-16T01:20:51;2.90;99.90
6841;DHT22;3458;53.678;14.080;2023-03-16T01:23:18;2.80;99.90
6841;DHT22;3458;53.678;14.080;2023-03-16T01:25:43;2.90;99.90
6841;DHT22;3458;53.678;14.080;2023-03-16T01:28:20;2.90;99.90
6841;DHT22;3458;53.678;14.080;2023-03-16T01:30:49;2.80;99.90
6841;DHT22;3458;53.678;14.080;2023-03-16T01:33:18;2.80;99.90
6841;DHT22;3458;53.678;14.080;2023-03-16T01:35:54;2.80;99.90
6841;DHT22;3458;53.678;14.080;2023-03-16T01:38:20;2.70;99.90
6841;DHT22;3458;53.678;14.080;2023-03-16T01:40:46;2.80;99.90
6841;DHT22;3458;53.678;14.080;2023-03-16T01:43:16;2.70;99.90
6841;DHT22;3458;53.678;14.080;2023-03-16T01:48:32;2.80;99.90
6841;DHT22;3458;53.678;14.080;2023-03-16T01:51:10;2.80;99.90
6841;DHT22;3458;53.678;14.080;2023-03-16T01:53:37;2.80;99.90
6841;DHT22;3458;53.678;14.080;2023-03-16T01:56:06;2.70;99.90
6841;DHT22;3458;53.678;14.080;2023-03-16T01:58:35;2.70;99.90
6841;DHT22;3458;53.678;14.080;2023-03-16T02:01:01;2.70;99.90
6841;DHT22;3458;53.678;14.080;2023-03-16T02:03:27;2.70;99.90
6841;DHT22;3458;53.678;14.080;2023-03-16T02:06:05;2.80;99.90
6841;DHT22;3458;53.678;14.080;2023-03-16T02:08:32;2.70;99.90
6841;DHT22;3458;53.678;14.080;2023-03-16T02:10:58;2.70;99.90
6841;DHT22;3458;53.678;14.080;2023-03-16T02:13:25;2.60;99.90
6841;DHT22;3458;53.678;14.080;2023-03-16T02:15:54;2.60;99.90
6841;DHT22;3458;53.678;14.080;2023-03-16T02:18:19;2.60;99.90
6841;DHT22;3458;53.678;14.080;2023-03-16T02:20:52;2.50;99.90
6841;DHT22;3458;53.678;14.080;2023-03-16T02:23:23;2.60;99.90
6841;DHT22;3458;53.678;14.080;2023-03-16T02:26:06;2.50;99.90
6841;DHT22;3458;53.678;14.080;2023-03-16T02:28:50;2.50;99.90
6841;DHT22;3458;53.678;14.080;2023-03-16T02:31:20;2.50;99.90
6841;DHT22;3458;53.678;14.080;2023-03-16T02:33:48;2.50;99.90
6841;DHT22;3458;53.678;14.080;2023-03-16T02:36:17;2.50;99.90
6841;DHT22;3458;53.678;14.080;2023-03-16T02:38:43;2.50;99.90
6841;DHT22;3458;53.678;14.080;2023-03-16T02:41:13;2.50;99.90
6841;DHT22;3458;53.678;14.080;2023-03-16T02:43:41;2.60;99.90
6841;DHT22;3458;53.678;14.080;2023-03-16T02:46:08;2.60;99.90
6841;DHT22;3458;53.678;14.080;2023-03-16T02:48:44;2.60;99.90
6841;DHT22;3458;53.678;14.080;2023-03-16T02:51:10;2.50;99.90
6841;DHT22;3458;53.678;14.080;2023-03-16T02:53:36;2.50;99.90
6841;DHT22;3458;53.678;14.080;2023-03-16T02:56:02;2.50;99.90
6841;DHT22;3458;53.678;14.080;2023-03-16T02:58:28;2.60;99.90
6841;DHT22;3458;53.678;14.080;2023-03-16T03:00:55;2.50;99.90
6841;DHT22;3458;53.678;14.080;2023-03-16T03:03:21;2.40;99.90
6841;DHT22;3458;53.678;14.080;2023-03-16T03:05:46;2.50;99.90
6841;DHT22;3458;53.678;14.080;2023-03-16T03:08:12;2.50;99.90
6841;DHT22;3458;53.678;14.080;2023-03-16T03:10:38;2.50;99.90
6841;DHT22;3458;53.678;14.080;2023-03-16T03:13:04;2.50;99.90
6841;DHT22;3458;53.678;14.080;2023-03-16T03:15:32;2.50;99.90
6841;DHT22;3458;53.678;14.080;2023-03-16T03:17:58;2.50;99.90
6841;DHT22;3458;53.678;14.080;2023-03-16T03:20:24;2.50;99.90
6841;DHT22;3458;53.678;14.080;2023-03-16T03:22:50;2.40;99.90
6841;DHT22;3458;53.678;14.080;2023-03-16T03:25:20;2.40;99.90
6841;DHT22;3458;53.678;14.080;2023-03-16T03:27:46;2.40;99.90
6841;DHT22;3458;53.678;14.080;2023-03-16T03:30:16;2.40;99.90
6841;DHT22;3458;53.678;14.080;2023-03-16T03:32:42;2.40;99.90
6841;DHT22;3458;53.678;14.080;2023-03-16T03:35:09;2.40;99.90
6841;DHT22;3458;53.678;14.080;2023-03-16T03:37:37;2.40;99.90
6841;DHT22;3458;53.678;14.080;2023-03-16T03:40:03;2.40;99.90
6841;DHT22;3458;53.678;14.080;2023-03-16T03:42:30;2.30;99.90
6841;DHT22;3458;53.678;14.080;2023-03-16T03:44:55;2.30;99.90
6841;DHT22;3458;53.678;14.080;2023-03-16T03:47:21;2.20;99.90
6841;DHT22;3458;53.678;14.080;2023-03-16T03:49:46;2.30;99.90
6841;DHT22;3458;53.678;14.080;2023-03-16T03:52:12;2.20;99.90
6841;DHT22;3458;53.678;14.080;2023-03-16T03:54:37;2.20;99.90
6841;DHT22;3458;53.678;14.080;2023-03-16T03:57:04;2.10;99.90
6841;DHT22;3458;53.678;14.080;2023-03-16T03:59:30;2.20;99.90
6841;DHT22;3458;53.678;14.080;2023-03-16T04:01:56;2.10;99.90
6841;DHT22;3458;53.678;14.080;2023-03-16T04:04:21;2.10;99.90
6841;DHT22;3458;53.678;14.080;2023-03-16T04:06:47;2.10;99.90
6841;DHT22;3458;53.678;14.080;2023-03-16T04:09:12;2.10;99.90
6841;DHT22;3458;53.678;14.080;2023-03-16T04:11:38;2.10;99.90
6841;DHT22;3458;53.678;14.080;2023-03-16T04:14:04;2.00;99.90
6841;DHT22;3458;53.678;14.080;2023-03-16T04:16:30;2.10;99.90
6841;DHT22;3458;53.678;14.080;2023-03-16T04:18:55;2.10;99.90
6841;DHT22;3458;53.678;14.080;2023-03-16T04:21:21;2.00;99.90
6841;DHT22;3458;53.678;14.080;2023-03-16T04:23:48;1.90;99.90
6841;DHT22;3458;53.678;14.080;2023-03-16T04:26:14;2.00;99.90
6841;DHT22;3458;53.678;14.080;2023-03-16T04:28:40;2.00;99.90
6841;DHT22;3458;53.678;14.080;2023-03-16T04:31:07;2.00;99.90
6841;DHT22;3458;53.678;14.080;2023-03-16T04:33:35;2.10;99.90
6841;DHT22;3458;53.678;14.080;2023-03-16T04:36:01;2.10;99.90
6841;DHT22;3458;53.678;14.080;2023-03-16T04:38:29;2.10;99.90
6841;DHT22;3458;53.678;14.080;2023-03-16T04:40:55;2.10;99.90
6841;DHT22;3458;53.678;14.080;2023-03-16T04:43:20;2.10;99.90
6841;DHT22;3458;53.678;14.080;2023-03-16T04:45:47;2.10;99.90
6841;DHT22;3458;53.678;14.080;2023-03-16T04:48:12;2.10;99.90
6841;DHT22;3458;53.678;14.080;2023-03-16T04:50:38;2.10;99.90
6841;DHT22;3458;53.678;14.080;2023-03-16T04:53:03;2.10;99.90
6841;DHT22;3458;53.678;14.080;2023-03-16T04:55:29;2.20;99.90
6841;DHT22;3458;53.678;14.080;2023-03-16T04:57:55;2.20;99.90
6841;DHT22;3458;53.678;14.080;2023-03-16T05:00:21;2.00;99.90
6841;DHT22;3458;53.678;14.080;2023-03-16T05:02:49;2.10;99.90
6841;DHT22;3458;53.678;14.080;2023-03-16T05:05:15;2.10;99.90
6841;DHT22;3458;53.678;14.080;2023-03-16T05:07:41;2.00;99.90
6841;DHT22;3458;53.678;14.080;2023-03-16T05:10:08;2.00;99.90
6841;DHT22;3458;53.678;14.080;2023-03-16T05:12:34;2.00;99.90
6841;DHT22;3458;53.678;14.080;2023-03-16T05:14:59;2.00;99.90
6841;DHT22;3458;53.678;14.080;2023-03-16T05:17:26;1.90;99.90
6841;DHT22;3458;53.678;14.080;2023-03-16T05:19:51;1.90;99.90
6841;DHT22;3458;53.678;14.080;2023-03-16T05:22:17;1.80;99.90
6841;DHT22;3458;53.678;14.080;2023-03-16T05:24:42;1.90;99.90
6841;DHT22;3458;53.678;14.080;2023-03-16T05:27:08;1.90;99.90
6841;DHT22;3458;53.678;14.080;2023-03-16T05:29:33;1.90;99.90
6841;DHT22;3458;53.678;14.080;2023-03-16T05:31:59;2.00;99.90
6841;DHT22;3458;53.678;14.080;2023-03-16T05:34:25;1.90;99.90
6841;DHT22;3458;53.678;14.080;2023-03-16T05:36:51;1.90;99.90
6841;DHT22;3458;53.678;14.080;2023-03-16T05:39:16;1.90;99.90
6841;DHT22;3458;53.678;14.080;2023-03-16T05:41:42;1.90;99.90
6841;DHT22;3458;53.678;14.080;2023-03-16T05:44:08;1.90;99.90
6841;DHT22;3458;53.678;14.080;2023-03-16T05:46:33;1.90;99.90
6841;DHT22;3458;53.678;14.080;2023-03-16T05:48:59;1.90;99.90
6841;DHT22;3458;53.678;14.080;2023-03-16T05:51:25;1.90;99.90
6841;DHT22;3458;53.678;14.080;2023-03-16T05:53:51;1.90;99.90
6841;DHT22;3458;53.678;14.080;2023-03-16T05:56:16;1.90;99.90
6841;DHT22;3458;53.678;14.080;2023-03-16T05:58:42;2.00;99.90
6841;DHT22;3458;53.678;14.080;2023-03-16T06:01:07;2.00;99.90
6841;DHT22;3458;53.678;14.080;2023-03-16T06:03:34;2.00;99.90
6841;DHT22;3458;53.678;14.080;2023-03-16T06:05:59;2.00;99.90
6841;DHT22;3458;53.678;14.080;2023-03-16T06:08:26;2.20;99.90
6841;DHT22;3458;53.678;14.080;2023-03-16T06:10:51;2.20;99.90
6841;DHT22;3458;53.678;14.080;2023-03-16T06:13:17;2.20;99.90
6841;DHT22;3458;53.678;14.080;2023-03-16T06:15:43;2.10;99.90
6841;DHT22;3458;53.678;14.080;2023-03-16T06:18:08;2.10;99.90
6841;DHT22;3458;53.678;14.080;2023-03-16T06:20:34;2.00;99.90
6841;DHT22;3458;53.678;14.080;2023-03-16T06:22:59;2.00;99.90
6841;DHT22;3458;53.678;14.080;2023-03-16T06:25:25;2.00;99.90
6841;DHT22;3458;53.678;14.080;2023-03-16T06:27:50;2.00;99.90
6841;DHT22;3458;53.678;14.080;2023-03-16T06:30:17;2.10;99.90
6841;DHT22;3458;53.678;14.080;2023-03-16T06:32:42;2.10;99.90
6841;DHT22;3458;53.678;14.080;2023-03-16T06:35:09;2.10;99.90
6841;DHT22;3458;53.678;14.080;2023-03-16T06:37:35;2.20;99.90
6841;DHT22;3458;53.678;14.080;2023-03-16T06:40:01;2.30;99.90
6841;DHT22;3458;53.678;14.080;2023-03-16T06:42:26;2.30;99.90
6841;DHT22;3458;53.678;14.080;2023-03-16T06:44:52;2.40;99.90
6841;DHT22;3458;53.678;14.080;2023-03-16T06:47:18;2.40;99.90
6841;DHT22;3458;53.678;14.080;2023-03-16T06:49:44;2.30;99.90
6841;DHT22;3458;53.678;14.080;2023-03-16T06:52:11;2.40;99.90
6841;DHT22;3458;53.678;14.080;2023-03-16T06:54:38;2.40;99.90
6841;DHT22;3458;53.678;14.080;2023-03-16T06:57:03;2.50;99.90
6841;DHT22;3458;53.678;14.080;2023-03-16T06:59:29;2.50;99.90
6841;DHT22;3458;53.678;14.080;2023-03-16T07:01:55;2.50;99.90
6841;DHT22;3458;53.678;14.080;2023-03-16T07:04:21;2.50;99.90
6841;DHT22;3458;53.678;14.080;2023-03-16T07:06:46;2.60;99.90
6841;DHT22;3458;53.678;14.080;2023-03-16T07:09:12;2.70;99.90
6841;DHT22;3458;53.678;14.080;2023-03-16T07:11:38;2.70;99.90
6841;DHT22;3458;53.678;14.080;2023-03-16T07:14:04;2.70;99.90
6841;DHT22;3458;53.678;14.080;2023-03-16T07:16:30;2.80;99.90
6841;DHT22;3458;53.678;14.080;2023-03-16T07:18:56;2.80;99.90
6841;DHT22;3458;53.678;14.080;2023-03-16T07:21:22;2.80;99.90
6841;DHT22;3458;53.678;14.080;2023-03-16T07:23:47;2.90;99.90
6841;DHT22;3458;53.678;14.080;2023-03-16T07:26:13;2.90;99.90
6841;DHT22;3458;53.678;14.080;2023-03-16T07:28:39;2.90;99.90
6841;DHT22;3458;53.678;14.080;2023-03-16T07:31:05;2.90;99.90
6841;DHT22;3458;53.678;14.080;2023-03-16T07:33:32;2.90;99.90
6841;DHT22;3458;53.678;14.080;2023-03-16T07:35:58;3.00;99.90
6841;DHT22;3458;53.678;14.080;2023-03-16T07:38:24;3.00;99.90
6841;DHT22;3458;53.678;14.080;2023-03-16T07:40:49;3.10;99.90
6841;DHT22;3458;53.678;14.080;2023-03-16T07:43:16;3.20;99.90
6841;DHT22;3458;53.678;14.080;2023-03-16T07:45:47;3.20;99.90
6841;DHT22;3458;53.678;14.080;2023-03-16T07:48:12;3.30;99.90
6841;DHT22;3458;53.678;14.080;2023-03-16T07:50:38;3.40;99.90
6841;DHT22;3458;53.678;14.080;2023-03-16T07:53:03;3.50;99.90
6841;DHT22;3458;53.678;14.080;2023-03-16T07:55:29;3.50;99.90
6841;DHT22;3458;53.678;14.080;2023-03-16T07:57:56;3.50;99.90
6841;DHT22;3458;53.678;14.080;2023-03-16T08:00:21;3.60;99.90
6841;DHT22;3458;53.678;14.080;2023-03-16T08:02:48;3.70;99.90
6841;DHT22;3458;53.678;14.080;2023-03-16T08:05:14;3.80;99.90
6841;DHT22;3458;53.678;14.080;2023-03-16T08:07:40;3.90;99.90
6841;DHT22;3458;53.678;14.080;2023-03-16T08:10:06;4.00;99.90
6841;DHT22;3458;53.678;14.080;2023-03-16T08:12:32;4.10;99.90
6841;DHT22;3458;53.678;14.080;2023-03-16T08:14:58;4.20;99.90
6841;DHT22;3458;53.678;14.080;2023-03-16T08:17:23;4.30;99.90
6841;DHT22;3458;53.678;14.080;2023-03-16T08:19:49;4.40;99.90
6841;DHT22;3458;53.678;14.080;2023-03-16T08:22:14;4.50;99.90
6841;DHT22;3458;53.678;14.080;2023-03-16T08:24:39;4.50;99.90
6841;DHT22;3458;53.678;14.080;2023-03-16T08:27:06;4.60;99.90
6841;DHT22;3458;53.678;14.080;2023-03-16T08:29:32;4.70;99.90
6841;DHT22;3458;53.678;14.080;2023-03-16T08:31:58;4.80;99.90
6841;DHT22;3458;53.678;14.080;2023-03-16T08:34:26;4.90;99.90
6841;DHT22;3458;53.678;14.080;2023-03-16T08:36:52;5.00;99.90
6841;DHT22;3458;53.678;14.080;2023-03-16T08:39:18;5.10;99.90
6841;DHT22;3458;53.678;14.080;2023-03-16T08:41:43;5.20;99.90
6841;DHT22;3458;53.678;14.080;2023-03-16T08:44:10;5.40;99.90
6841;DHT22;3458;53.678;14.080;2023-03-16T08:46:37;5.50;99.90
6841;DHT22;3458;53.678;14.080;2023-03-16T08:49:03;5.50;99.90
6841;DHT22;3458;53.678;14.080;2023-03-16T08:51:29;5.60;99.90
6841;DHT22;3458;53.678;14.080;2023-03-16T08:53:55;5.60;99.90
6841;DHT22;3458;53.678;14.080;2023-03-16T08:56:20;5.70;99.90
6841;DHT22;3458;53.678;14.080;2023-03-16T08:58:46;5.70;99.90
6841;DHT22;3458;53.678;14.080;2023-03-16T09:01:14;5.80;99.90
6841;DHT22;3458;53.678;14.080;2023-03-16T09:03:40;5.90;99.90
6841;DHT22;3458;53.678;14.080;2023-03-16T09:06:08;5.90;99.90
6841;DHT22;3458;53.678;14.080;2023-03-16T09:08:34;6.00;99.90
6841;DHT22;3458;53.678;14.080;2023-03-16T09:11:19;6.10;99.90
6841;DHT22;3458;53.678;14.080;2023-03-16T09:13:46;6.20;99.90
6841;DHT22;3458;53.678;14.080;2023-03-16T09:16:12;6.30;99.90
6841;DHT22;3458;53.678;14.080;2023-03-16T09:18:39;6.40;99.90
6841;DHT22;3458;53.678;14.080;2023-03-16T09:21:07;6.50;99.90
6841;DHT22;3458;53.678;14.080;2023-03-16T09:23:35;6.60;99.90
6841;DHT22;3458;53.678;14.080;2023-03-16T09:26:05;6.60;99.90
6841;DHT22;3458;53.678;14.080;2023-03-16T09:28:32;6.70;99.90
6841;DHT22;3458;53.678;14.080;2023-03-16T09:30:59;6.80;99.90
6841;DHT22;3458;53.678;14.080;2023-03-16T09:33:26;7.00;99.90
6841;DHT22;3458;53.678;14.080;2023-03-16T09:35:53;7.00;99.90
6841;DHT22;3458;53.678;14.080;2023-03-16T09:38:20;7.00;99.90
6841;DHT22;3458;53.678;14.080;2023-03-16T09:40:47;7.10;99.90
6841;DHT22;3458;53.678;14.080;2023-03-16T09:46:19;7.50;99.90
6841;DHT22;3458;53.678;14.080;2023-03-16T09:48:48;7.70;99.90
6841;DHT22;3458;53.678;14.080;2023-03-16T09:51:43;7.90;99.90
6841;DHT22;3458;53.678;14.080;2023-03-16T09:54:34;8.10;99.90
6841;DHT22;3458;53.678;14.080;2023-03-16T09:57:04;8.40;99.90
6841;DHT22;3458;53.678;14.080;2023-03-16T09:59:29;8.70;99.90
6841;DHT22;3458;53.678;14.080;2023-03-16T10:04:56;8.90;99.90
6841;DHT22;3458;53.678;14.080;2023-03-16T10:10:14;8.60;99.90
6841;DHT22;3458;53.678;14.080;2023-03-16T10:12:45;8.70;99.90
6841;DHT22;3458;53.678;14.080;2023-03-16T10:15:15;9.00;99.90
6841;DHT22;3458;53.678;14.080;2023-03-16T10:18:03;9.20;99.90
6841;DHT22;3458;53.678;14.080;2023-03-16T10:20:33;9.40;99.90
6841;DHT22;3458;53.678;14.080;2023-03-16T10:23:00;9.50;99.90
6841;DHT22;3458;53.678;14.080;2023-03-16T10:25:38;9.30;98.90
6841;DHT22;3458;53.678;14.080;2023-03-16T10:28:05;8.90;97.70
6841;DHT22;3458;53.678;14.080;2023-03-16T10:30:33;8.60;97.40
6841;DHT22;3458;53.678;14.080;2023-03-16T10:33:02;8.60;97.00
6841;DHT22;3458;53.678;14.080;2023-03-16T10:35:56;8.60;97.20
6841;DHT22;3458;53.678;14.080;2023-03-16T10:38:30;8.60;97.60
6841;DHT22;3458;53.678;14.080;2023-03-16T10:40:58;8.50;97.10
6841;DHT22;3458;53.678;14.080;2023-03-16T10:43:23;8.60;96.90
6841;DHT22;3458;53.678;14.080;2023-03-16T10:45:49;9.00;97.80
6841;DHT22;3458;53.678;14.080;2023-03-16T10:48:17;9.10;96.10
6841;DHT22;3458;53.678;14.080;2023-03-16T10:50:56;9.10;95.40
6841;DHT22;3458;53.678;14.080;2023-03-16T10:53:30;9.10;95.80
6841;DHT22;3458;53.678;14.080;2023-03-16T10:56:01;8.90;95.50
6841;DHT22;3458;53.678;14.080;2023-03-16T10:58:33;8.90;95.80
6841;DHT22;3458;53.678;14.080;2023-03-16T11:01:00;9.00;95.10
6841;DHT22;3458;53.678;14.080;2023-03-16T11:03:38;9.30;95.70
6841;DHT22;3458;53.678;14.080;2023-03-16T11:06:07;9.70;96.00
6841;DHT22;3458;53.678;14.080;2023-03-16T11:08:40;10.00;93.90
6841;DHT22;3458;53.678;14.080;2023-03-16T11:11:09;10.20;92.70
6841;DHT22;3458;53.678;14.080;2023-03-16T11:13:37;10.30;91.00
6841;DHT22;3458;53.678;14.080;2023-03-16T11:16:27;10.50;90.40
6841;DHT22;3458;53.678;14.080;2023-03-16T11:18:57;10.60;87.80
6841;DHT22;3458;53.678;14.080;2023-03-16T11:21:45;10.80;86.60
6841;DHT22;3458;53.678;14.080;2023-03-16T11:24:28;11.00;86.40
6841;DHT22;3458;53.678;14.080;2023-03-16T11:26:57;11.20;87.80
6841;DHT22;3458;53.678;14.080;2023-03-16T11:29:40;11.30;85.60
6841;DHT22;3458;53.678;14.080;2023-03-16T11:32:22;11.30;84.90
6841;DHT22;3458;53.678;14.080;2023-03-16T11:34:50;11.50;83.80
6841;DHT22;3458;53.678;14.080;2023-03-16T11:37:41;11.60;81.20
6841;DHT22;3458;53.678;14.080;2023-03-16T11:40:44;11.60;75.30
6841;DHT22;3458;53.678;14.080;2023-03-16T11:46:30;11.70;74.40
6841;DHT22;3458;53.678;14.080;2023-03-16T11:49:29;12.00;72.20
6841;DHT22;3458;53.678;14.080;2023-03-16T11:52:04;12.30;70.90
6841;DHT22;3458;53.678;14.080;2023-03-16T11:54:53;12.50;68.40
6841;DHT22;3458;53.678;14.080;2023-03-16T11:57:55;12.70;66.20
6841;DHT22;3458;53.678;14.080;2023-03-16T12:03:11;13.20;64.70
6841;DHT22;3458;53.678;14.080;2023-03-16T12:11:25;13.90;62.40
6841;DHT22;3458;53.678;14.080;2023-03-16T12:17:03;14.20;59.00
6841;DHT22;3458;53.678;14.080;2023-03-16T12:19:36;14.20;58.30
6841;DHT22;3458;53.678;14.080;2023-03-16T12:22:20;14.40;57.10
6841;DHT22;3458;53.678;14.080;2023-03-16T12:24:46;14.60;57.40
6841;DHT22;3458;53.678;14.080;2023-03-16T12:27:21;15.00;56.20
6841;DHT22;3458;53.678;14.080;2023-03-16T12:29:59;15.10;56.40
6841;DHT22;3458;53.678;14.080;2023-03-16T12:32:49;15.30;55.60
6841;DHT22;3458;53.678;14.080;2023-03-16T12:35:35;15.30;54.60
6841;DHT22;3458;53.678;14.080;2023-03-16T12:41:14;15.60;53.70
6841;DHT22;3458;53.678;14.080;2023-03-16T12:44:03;15.90;52.90
6841;DHT22;3458;53.678;14.080;2023-03-16T12:46:38;16.10;52.10
6841;DHT22;3458;53.678;14.080;2023-03-16T12:49:07;16.40;52.30
6841;DHT22;3458;53.678;14.080;2023-03-16T12:51:39;16.80;52.30
6841;DHT22;3458;53.678;14.080;2023-03-16T12:54:17;17.10;52.10
6841;DHT22;3458;53.678;14.080;2023-03-16T12:56:45;17.40;52.20
6841;DHT22;3458;53.678;14.080;2023-03-16T12:59:22;17.50;50.80
6841;DHT22;3458;53.678;14.080;2023-03-16T13:01:51;17.50;50.70
6841;DHT22;3458;53.678;14.080;2023-03-16T13:04:23;17.60;51.60
6841;DHT22;3458;53.678;14.080;2023-03-16T13:07:03;17.80;51.90
6841;DHT22;3458;53.678;14.080;2023-03-16T13:09:34;18.10;50.30
6841;DHT22;3458;53.678;14.080;2023-03-16T13:12:01;17.90;48.60
6841;DHT22;3458;53.678;14.080;2023-03-16T13:14:38;18.00;48.10
6841;DHT22;3458;53.678;14.080;2023-03-16T13:22:49;18.40;47.00
6841;DHT22;3458;53.678;14.080;2023-03-16T13:27:54;18.40;46.80
6841;DHT22;3458;53.678;14.080;2023-03-16T13:30:23;18.60;46.50
6841;DHT22;3458;53.678;14.080;2023-03-16T13:33:00;18.90;46.60
6841;DHT22;3458;53.678;14.080;2023-03-16T13:35:29;19.10;46.10
6841;DHT22;3458;53.678;14.080;2023-03-16T13:38:05;19.40;46.30
6841;DHT22;3458;53.678;14.080;2023-03-16T13:40:31;19.70;46.70
6841;DHT22;3458;53.678;14.080;2023-03-16T13:42:57;19.80;45.60
6841;DHT22;3458;53.678;14.080;2023-03-16T13:45:31;19.90;46.20
6841;DHT22;3458;53.678;14.080;2023-03-16T13:47:59;20.10;45.60
6841;DHT22;3458;53.678;14.080;2023-03-16T13:50:26;20.10;45.10
6841;DHT22;3458;53.678;14.080;2023-03-16T13:52:58;19.80;45.10
6841;DHT22;3458;53.678;14.080;2023-03-16T13:55:32;19.30;44.70
6841;DHT22;3458;53.678;14.080;2023-03-16T13:57:59;19.30;44.50
6841;DHT22;3458;53.678;14.080;2023-03-16T14:00:34;19.20;44.70
6841;DHT22;3458;53.678;14.080;2023-03-16T14:03:10;19.30;44.40
6841;DHT22;3458;53.678;14.080;2023-03-16T14:05:38;19.80;44.10
6841;DHT22;3458;53.678;14.080;2023-03-16T14:08:20;20.10;44.10
6841;DHT22;3458;53.678;14.080;2023-03-16T14:10:48;20.30;44.00
6841;DHT22;3458;53.678;14.080;2023-03-16T14:15:53;20.80;42.70
6841;DHT22;3458;53.678;14.080;2023-03-16T14:18:23;20.60;41.60
6841;DHT22;3458;53.678;14.080;2023-03-16T14:20:53;20.70;42.00
6841;DHT22;3458;53.678;14.080;2023-03-16T14:23:24;20.80;41.40
6841;DHT22;3458;53.678;14.080;2023-03-16T14:25:51;21.00;41.50
6841;DHT22;3458;53.678;14.080;2023-03-16T14:28:19;21.00;41.20
6841;DHT22;3458;53.678;14.080;2023-03-16T14:30:54;21.00;41.40
6841;DHT22;3458;53.678;14.080;2023-03-16T14:33:31;21.10;41.90
6841;DHT22;3458;53.678;14.080;2023-03-16T14:35:58;21.40;41.80
6841;DHT22;3458;53.678;14.080;2023-03-16T14:38:35;21.20;42.20
6841;DHT22;3458;53.678;14.080;2023-03-16T14:41:04;20.30;40.50
6841;DHT22;3458;53.678;14.080;2023-03-16T14:43:32;18.90;41.00
6841;DHT22;3458;53.678;14.080;2023-03-16T14:45:59;17.70;42.70
6841;DHT22;3458;53.678;14.080;2023-03-16T14:48:25;17.30;43.60
6841;DHT22;3458;53.678;14.080;2023-03-16T14:50:56;17.70;44.30
6841;DHT22;3458;53.678;14.080;2023-03-16T14:53:22;18.50;44.10
6841;DHT22;3458;53.678;14.080;2023-03-16T14:55:55;18.90;42.60
6841;DHT22;3458;53.678;14.080;2023-03-16T14:58:21;18.70;42.20
6841;DHT22;3458;53.678;14.080;2023-03-16T15:00:47;18.50;42.40
6841;DHT22;3458;53.678;14.080;2023-03-16T15:03:19;18.30;42.50
6841;DHT22;3458;53.678;14.080;2023-03-16T15:05:48;18.80;43.00
6841;DHT22;3458;53.678;14.080;2023-03-16T15:08:24;19.30;42.40
6841;DHT22;3458;53.678;14.080;2023-03-16T15:10:52;19.70;41.70
6841;DHT22;3458;53.678;14.080;2023-03-16T15:13:20;19.80;40.80
6841;DHT22;3458;53.678;14.080;2023-03-16T15:16:01;19.80;40.50
6841;DHT22;3458;53.678;14.080;2023-03-16T15:18:33;20.00;40.10
6841;DHT22;3458;53.678;14.080;2023-03-16T15:20:59;20.20;40.20
6841;DHT22;3458;53.678;14.080;2023-03-16T15:23:27;20.30;40.00
6841;DHT22;3458;53.678;14.080;2023-03-16T15:25:53;20.50;39.80
6841;DHT22;3458;53.678;14.080;2023-03-16T15:28:26;20.40;39.40
6841;DHT22;3458;53.678;14.080;2023-03-16T15:30:57;20.60;39.00
6841;DHT22;3458;53.678;14.080;2023-03-16T15:33:23;20.60;38.50
6841;DHT22;3458;53.678;14.080;2023-03-16T15:35:50;20.80;38.30
6841;DHT22;3458;53.678;14.080;2023-03-16T15:38:31;20.90;37.80
6841;DHT22;3458;53.678;14.080;2023-03-16T15:40:58;21.10;37.80
6841;DHT22;3458;53.678;14.080;2023-03-16T15:43:26;21.30;37.60
6841;DHT22;3458;53.678;14.080;2023-03-16T15:45:54;21.60;37.40
6841;DHT22;3458;53.678;14.080;2023-03-16T15:48:20;22.00;36.80
6841;DHT22;3458;53.678;14.080;2023-03-16T15:51:17;22.20;36.60
6841;DHT22;3458;53.678;14.080;2023-03-16T15:53:50;22.40;36.50
6841;DHT22;3458;53.678;14.080;2023-03-16T15:56:22;22.40;36.00
6841;DHT22;3458;53.678;14.080;2023-03-16T15:58:54;22.10;36.10
6841;DHT22;3458;53.678;14.080;2023-03-16T16:01:23;21.70;36.70
6841;DHT22;3458;53.678;14.080;2023-03-16T16:03:50;21.20;37.30
6841;DHT22;3458;53.678;14.080;2023-03-16T16:06:16;20.70;37.30
6841;DHT22;3458;53.678;14.080;2023-03-16T16:08:42;20.00;37.90
6841;DHT22;3458;53.678;14.080;2023-03-16T16:11:22;19.10;38.40
6841;DHT22;3458;53.678;14.080;2023-03-16T16:13:48;18.20;39.20
6841;DHT22;3458;53.678;14.080;2023-03-16T16:16:17;17.40;40.00
6841;DHT22;3458;53.678;14.080;2023-03-16T16:18:43;16.90;40.60
6841;DHT22;3458;53.678;14.080;2023-03-16T16:21:23;16.40;40.60
6841;DHT22;3458;53.678;14.080;2023-03-16T16:23:50;15.90;40.90
6841;DHT22;3458;53.678;14.080;2023-03-16T16:26:31;15.50;41.40
6841;DHT22;3458;53.678;14.080;2023-03-16T16:28:59;15.00;42.30
6841;DHT22;3458;53.678;14.080;2023-03-16T16:31:26;14.60;43.40
6841;DHT22;3458;53.678;14.080;2023-03-16T16:33:52;14.20;44.20
6841;DHT22;3458;53.678;14.080;2023-03-16T16:36:18;13.80;44.90
6841;DHT22;3458;53.678;14.080;2023-03-16T16:38:48;13.40;45.50
6841;DHT22;3458;53.678;14.080;2023-03-16T16:41:30;13.00;46.10
6841;DHT22;3458;53.678;14.080;2023-03-16T16:43:57;12.60;46.40
6841;DHT22;3458;53.678;14.080;2023-03-16T16:46:26;12.30;46.60
6841;DHT22;3458;53.678;14.080;2023-03-16T16:48:57;12.10;47.30
6841;DHT22;3458;53.678;14.080;2023-03-16T16:51:28;11.80;47.50